Flight Track Log - Related Links

Times and Time Zones

All times are in EDT time to prevent confusion due to time zone crossing. See the KLM1884 flight status page for this flight to view local times or setup timezone preferences in your user account.

Time Position Orientation Groundspeed Altitude Reporting Facility
EDT Latitude Longitude Course Direction KTS MPH feet Rate Location/Type
Fri 04:30:00 AM 49.7266 10.6189 308° West  Level Estimated
Fri 04:31:00 AM 49.7833 10.5035 307° West  Level Estimated
Fri 04:32:00 AM 49.8399 10.3878 307° West  Level Estimated
Fri 04:33:00 AM 49.8963 10.2718 307° West  Level Estimated
Fri 04:34:00 AM 49.9527 10.1555 307° West  Level Estimated
Fri 04:35:00 AM 50.0089 10.0389 307° West  Level Estimated
Fri 04:36:00 AM 50.0650 9.9221 307° West  Level Estimated
Fri 04:37:00 AM 50.1210 9.8050 307° West  Level Estimated
Fri 04:38:00 AM 50.1769 9.6877 307° West  Level Estimated
Fri 04:39:00 AM 50.2327 9.5700 307° West  Level Estimated
Fri 04:40:00 AM 50.2883 9.4521 306° West  Level Estimated
Fri 04:41:00 AM 50.3439 9.3339 306° West  Level Estimated
Fri 04:42:00 AM 50.3993 9.2154 306° West  Level Estimated
Fri 04:43:00 AM 50.4546 9.0967 306° West  Level Estimated
Fri 04:44:00 AM 50.5097 8.9777 306° West  Level Estimated
Fri 04:45:00 AM 50.5648 8.8584 306° West  Level Estimated
Fri 04:46:00 AM 50.6197 8.7388 306° West  Level Estimated
Fri 04:47:00 AM 50.6745 8.6189 306° West  Level Estimated
Fri 04:48:00 AM 50.7291 8.4988 306° West  Level Estimated
Fri 04:49:00 AM 50.7837 8.3784 306° West  Level Estimated
Fri 04:50:00 AM 50.8381 8.2577 306° West  Level Estimated
Fri 04:51:00 AM 50.8924 8.1367 305° West  Level Estimated
Fri 04:52:00 AM 50.9466 8.0154 305° West  Level Estimated
Fri 04:53:00 AM 51.0006 7.8939 305° West  Level Estimated
Fri 04:54:00 AM 51.0546 7.7720 305° West  Level Estimated
Fri 04:55:00 AM 51.1084 7.6499 305° West  Level Estimated
Fri 04:56:00 AM 51.1620 7.5275 305° West  Level Estimated
Fri 04:57:00 AM 51.2156 7.4049 305° West  Level Estimated
Fri 04:58:00 AM 51.2690 7.2819 305° West  Level Estimated
Fri 04:59:00 AM 51.3223 7.1586 305° West  Level Estimated
Fri 05:00:00 AM 51.3754 7.0351 305° West  Level Estimated
Fri 05:01:00 AM 51.4285 6.9113 305° West  Level Estimated
Fri 05:02:00 AM 51.4814 6.7871 304° West  Level Estimated
Fri 05:03:00 AM 51.5341 6.6627 304° West  Level Estimated
Fri 05:04:00 AM 51.5868 6.5381 304° West  Level Estimated
Fri 05:05:00 AM 51.6393 6.4131 304° West  Level Estimated
Fri 05:06:00 AM 51.6916 6.2878 304° West  Level Estimated
Fri 05:07:00 AM 51.7438 6.1623 304° West  Level Estimated
Fri 05:08:00 AM 51.7959 6.0364 304° West  Level Estimated
Fri 05:09:00 AM 51.8479 5.9103 304° West  Level Estimated
Fri 05:10:00 AM 51.8997 5.7838 304° West  Level Estimated
Fri 05:11:00 AM 51.9514 5.6571 304° West  Level Estimated
Fri 05:12:00 AM 52.0030 5.5301 303° West  Level Estimated
Fri 05:13:00 AM 52.0544 5.4028 303° West  Level Estimated
Fri 05:14:00 AM 52.1057 5.2752 303° West  Level Estimated
Fri 05:15:00 AM 52.1568 5.1473 303° West  Level Estimated
Fri 05:16:00 AM 52.2078 5.0191 303° West  Level Estimated
Fri 05:17:00 AM 52.2587 4.8906 303° West  Level Estimated
Fri 05:18:00 AM 52.3086 4.7639 303° West  Level Estimated
Fri 05:19:00 AM 52.3086 4.7639 North  Level Estimated
Fri 05:20:00 AM 52.3086 4.7639 North  Level Estimated
Fri 05:21:00 AM 52.3086 4.7639 North  Level Estimated
Fri 05:22:00 AM 52.3086 4.7639 North  Level Estimated
Fri 05:23:00 AM 52.3086 4.7639 North  Level Estimated
Fri 05:24:00 AM 52.3086 4.7639 North  Level Estimated
Fri 05:25:00 AM 52.3086 4.7639 North  Level Estimated
Fri 05:26:00 AM 52.3086 4.7639 North  Level Estimated
Fri 05:27:00 AM 52.3086 4.7639 North  Level Estimated
Fri 05:28:00 AM 52.3086 4.7639 North  Level Estimated
Fri 05:29:00 AM 52.3086 4.7639 North  Level Estimated
Fri 05:30:00 AM 52.3086 4.7639 North  Level Estimated
Fri 05:31:00 AM 52.3086 4.7639 North  Level Estimated
Fri 05:32:00 AM 52.3086 4.7639 North  Level Estimated
Fri 05:33:00 AM 52.3086 4.7639 North  Level Estimated
Fri 05:34:00 AM 52.3086 4.7639 North  Level Estimated

Login

Don't have an account? Register now (free) for customized features, flight alerts, and more!